createdAt,value
2023-08-31T18:00:32.281Z,0.70
2023-08-31T18:03:00.925Z,0.73
2023-08-31T18:05:27.928Z,0.45
2023-08-31T18:07:54.750Z,1.00
2023-08-31T18:10:22.369Z,0.88
2023-08-31T18:12:49.371Z,0.60
2023-08-31T18:15:16.362Z,0.50
2023-08-31T18:17:43.285Z,0.40
2023-08-31T18:20:10.650Z,0.40
2023-08-31T18:22:37.542Z,0.50
2023-08-31T18:25:04.811Z,0.80
2023-08-31T18:27:50.368Z,1.20
2023-08-31T18:30:17.326Z,1.75
2023-08-31T18:32:46.273Z,2.35
2023-08-31T18:35:13.246Z,1.20
2023-08-31T18:37:41.075Z,1.35
2023-08-31T18:40:10.124Z,1.52
2023-08-31T18:42:40.355Z,1.60
2023-08-31T18:45:08.116Z,1.90
2023-08-31T18:47:35.357Z,2.05
2023-08-31T18:50:02.362Z,1.13
2023-08-31T18:52:29.142Z,0.70
2023-08-31T18:54:57.110Z,0.90
2023-08-31T18:57:42.895Z,1.02
2023-08-31T19:00:14.066Z,1.13
2023-08-31T19:02:42.298Z,1.13
2023-08-31T19:05:10.697Z,1.10
2023-08-31T19:07:37.499Z,1.40
2023-08-31T19:10:08.810Z,1.00
2023-08-31T19:12:36.982Z,0.90
2023-08-31T19:15:04.909Z,0.80
2023-08-31T19:17:31.694Z,0.80
2023-08-31T19:19:58.760Z,0.98
2023-08-31T19:22:25.566Z,1.08
2023-08-31T19:24:52.618Z,0.60
2023-08-31T19:27:20.146Z,0.88
2023-08-31T19:29:46.980Z,1.25
2023-08-31T19:32:14.633Z,1.20
2023-08-31T19:34:43.603Z,0.85
2023-08-31T19:37:10.586Z,0.93
2023-08-31T19:39:37.383Z,1.08
2023-08-31T19:42:04.538Z,1.10
2023-08-31T19:44:31.373Z,1.00
2023-08-31T19:47:05.387Z,0.98
2023-08-31T19:49:40.155Z,0.85
2023-08-31T19:52:06.951Z,1.27
2023-08-31T19:54:33.737Z,1.02
2023-08-31T19:57:00.594Z,1.00
2023-08-31T19:59:27.319Z,1.13
2023-08-31T20:01:54.168Z,0.93
2023-08-31T20:04:20.974Z,1.20
2023-08-31T20:06:47.783Z,1.63
2023-08-31T20:09:15.904Z,1.33
2023-08-31T20:11:42.833Z,1.30
2023-08-31T20:14:09.685Z,1.23
2023-08-31T20:16:36.825Z,0.90
2023-08-31T20:19:04.070Z,1.33
2023-08-31T20:21:30.929Z,1.13
2023-08-31T20:23:57.683Z,1.08
2023-08-31T20:26:24.419Z,0.88
2023-08-31T20:28:51.257Z,1.00
2023-08-31T20:31:19.484Z,0.85
2023-08-31T20:33:46.415Z,1.30
2023-08-31T20:36:14.095Z,1.00
2023-08-31T20:38:40.941Z,1.23
2023-08-31T20:41:08.965Z,1.40
2023-08-31T20:43:54.589Z,1.10
2023-08-31T20:46:21.480Z,1.40
2023-08-31T20:48:48.282Z,1.65
2023-08-31T20:51:17.486Z,1.25
2023-08-31T20:53:44.369Z,1.70
2023-08-31T20:56:29.999Z,0.98
2023-08-31T20:58:56.754Z,1.30
2023-08-31T21:01:24.821Z,1.20
2023-08-31T21:03:59.711Z,1.05
2023-08-31T21:06:28.447Z,1.50
2023-08-31T21:08:56.105Z,1.45
2023-08-31T21:11:26.234Z,1.10
2023-08-31T21:13:53.789Z,1.20
2023-08-31T21:16:21.598Z,1.35
2023-08-31T21:18:48.468Z,1.42
2023-08-31T21:21:17.141Z,1.23
2023-08-31T21:23:44.169Z,1.33
2023-08-31T21:26:10.957Z,1.02
2023-08-31T21:28:37.808Z,1.50
2023-08-31T21:31:04.946Z,1.45
2023-08-31T21:33:32.312Z,1.30
2023-08-31T21:36:04.845Z,1.33
2023-08-31T21:38:32.685Z,1.23
2023-08-31T21:41:05.727Z,2.25
2023-08-31T21:43:33.656Z,1.80
2023-08-31T21:46:01.084Z,1.65
2023-08-31T21:48:27.985Z,1.85
2023-08-31T21:50:54.826Z,1.52
2023-08-31T21:53:21.616Z,1.42
2023-08-31T21:55:48.452Z,1.25
2023-08-31T21:58:34.342Z,1.10
2023-08-31T22:01:01.827Z,1.20
2023-08-31T22:03:28.926Z,1.73
2023-08-31T22:05:55.799Z,1.30
2023-08-31T22:08:22.600Z,1.90
2023-08-31T22:10:49.439Z,1.60
2023-08-31T22:13:16.298Z,1.65
2023-08-31T22:15:46.001Z,1.00
2023-08-31T22:18:13.168Z,1.70
2023-08-31T22:20:40.275Z,1.30
2023-08-31T22:23:07.151Z,1.60
2023-08-31T22:25:34.501Z,1.45
2023-08-31T22:30:46.334Z,2.20
2023-08-31T22:33:31.697Z,2.40
2023-08-31T22:35:58.647Z,1.88
2023-08-31T22:38:25.362Z,1.80
2023-08-31T22:40:52.137Z,1.52
2023-08-31T22:43:18.887Z,1.65
2023-08-31T22:45:45.672Z,1.77
2023-08-31T22:48:13.047Z,2.55
2023-08-31T22:50:40.045Z,1.70
2023-08-31T22:53:06.814Z,1.70
2023-08-31T22:55:33.579Z,1.63
2023-08-31T22:58:00.420Z,2.25
2023-08-31T23:00:27.188Z,2.00
2023-08-31T23:02:54.082Z,2.50
2023-08-31T23:05:20.822Z,1.98
2023-08-31T23:07:47.634Z,1.85
2023-08-31T23:10:22.953Z,2.78
2023-08-31T23:13:16.729Z,2.42
2023-08-31T23:15:44.760Z,2.05
2023-08-31T23:18:12.520Z,1.30
2023-08-31T23:20:39.804Z,1.42
2023-08-31T23:23:06.621Z,1.45
2023-08-31T23:25:33.928Z,1.00
2023-08-31T23:28:00.859Z,0.90
2023-08-31T23:30:28.249Z,1.00
2023-08-31T23:32:55.164Z,1.45
2023-08-31T23:35:22.010Z,0.98
2023-08-31T23:37:48.833Z,1.30
2023-08-31T23:40:15.637Z,1.13
2023-08-31T23:42:44.135Z,1.27
2023-08-31T23:45:11.037Z,1.80
2023-08-31T23:50:22.002Z,0.98
2023-08-31T23:52:48.868Z,1.65
2023-08-31T23:55:15.655Z,1.40
2023-08-31T23:57:43.707Z,1.60
